Time;durP1;ratioP1;P1;durP2;ratioP2;P2;SDS_P1;SDS_P2;PMS_P1;PMS_P2;Temp;Humidity;BMP_temperature;BMP_pressure;BME280_temperature;BME280_humidity;BME280_pressure;Samples;Min_cycle;Max_cycle;Signal;HPM_P1;HPM_P2
2021/08/09 00:00:38;;;;;;;;;;;23.70;65.60;;;;;;5133944;27;19931;-60
2021/08/09 00:03:06;;;;;;;;;;;23.70;65.50;;;;;;5132371;27;19927;-60
2021/08/09 00:05:35;;;;;;;;;;;23.70;65.50;;;;;;5132810;27;19923;-59
2021/08/09 00:08:03;;;;;;;;;;;23.70;65.60;;;;;;5132911;27;19949;-59
2021/08/09 00:10:30;;;;;;;;;;;23.70;65.60;;;;;;5134010;27;19923;-59
2021/08/09 00:12:58;;;;;;;;;;;23.70;65.70;;;;;;5130512;27;19923;-60
2021/08/09 00:15:25;;;;;;;;;;;23.70;65.60;;;;;;5118015;27;19923;-60
2021/08/09 00:17:52;;;;;;;;;;;23.70;66.40;;;;;;5130762;27;19923;-60
2021/08/09 00:20:19;;;;;;;;;;;23.70;65.70;;;;;;5116633;27;19930;-61
2021/08/09 00:22:46;;;;;;;;;;;23.70;65.70;;;;;;5132452;27;19924;-60
2021/08/09 00:25:14;;;;;;;;;;;23.70;65.70;;;;;;5132789;27;19930;-59
2021/08/09 00:27:41;;;;;;;;;;;23.70;65.70;;;;;;5134003;27;19988;-59
2021/08/09 00:30:09;;;;;;;;;;;23.70;65.70;;;;;;5132433;27;20439;-59
2021/08/09 00:32:36;;;;;;;;;;;23.70;65.70;;;;;;5132887;27;20436;-59
2021/08/09 00:35:05;;;;;;;;;;;23.60;65.60;;;;;;5133747;28;19968;-59
2021/08/09 00:37:32;;;;;;;;;;;23.70;65.60;;;;;;5132607;28;19923;-59
2021/08/09 00:39:59;;;;;;;;;;;23.70;65.60;;;;;;5114476;28;19923;-59
2021/08/09 00:42:26;;;;;;;;;;;23.60;65.50;;;;;;5132148;28;19969;-60
2021/08/09 00:44:53;;;;;;;;;;;23.70;65.70;;;;;;5130889;28;19995;-59
2021/08/09 00:47:20;;;;;;;;;;;23.70;65.60;;;;;;5131932;28;19923;-59
2021/08/09 00:49:47;;;;;;;;;;;23.60;65.50;;;;;;5132098;28;19923;-60
2021/08/09 00:52:14;;;;;;;;;;;23.60;65.50;;;;;;5132512;28;20341;-59
2021/08/09 00:54:41;;;;;;;;;;;23.60;65.50;;;;;;5132395;28;20337;-59
2021/08/09 00:57:08;;;;;;;;;;;23.60;65.50;;;;;;5133001;28;19931;-59
2021/08/09 00:59:35;;;;;;;;;;;23.60;65.50;;;;;;5133252;28;19963;-60
2021/08/09 01:02:02;;;;;;;;;;;23.60;65.50;;;;;;5127049;28;19923;-61
2021/08/09 01:04:29;;;;;;;;;;;23.70;65.60;;;;;;5116585;28;19947;-59
2021/08/09 01:06:56;;;;;;;;;;;23.60;65.40;;;;;;5119196;28;19927;-59
2021/08/09 01:09:28;;;;;;;;;;;23.60;65.40;;;;;;5130411;28;20283;-59
2021/08/09 01:11:55;;;;;;;;;;;23.60;65.40;;;;;;5119392;28;19967;-59
2021/08/09 01:14:31;;;;;;;;;;;23.60;65.40;;;;;;5133557;28;19976;-59
2021/08/09 01:17:00;;;;;;;;;;;23.60;65.40;;;;;;5129957;28;19965;-59
2021/08/09 01:19:36;;;;;;;;;;;23.60;65.40;;;;;;5115180;28;20320;-59
2021/08/09 01:22:09;;;;;;;;;;;23.60;65.30;;;;;;5116609;28;19924;-59
2021/08/09 01:24:44;;;;;;;;;;;23.60;65.30;;;;;;5130369;28;19932;-59
2021/08/09 01:27:23;;;;;;;;;;;23.60;65.40;;;;;;5130267;28;19980;-59
2021/08/09 01:29:50;;;;;;;;;;;23.60;65.50;;;;;;5132169;28;19977;-59
2021/08/09 01:32:19;;;;;;;;;;;23.60;65.50;;;;;;5131913;28;20324;-59
2021/08/09 01:34:46;;;;;;;;;;;23.60;65.50;;;;;;5132106;28;19933;-59
2021/08/09 01:37:14;;;;;;;;;;;23.50;65.50;;;;;;5133471;27;19928;-59
2021/08/09 01:39:41;;;;;;;;;;;23.60;65.60;;;;;;5135139;27;19924;-59
2021/08/09 01:42:09;;;;;;;;;;;23.60;65.60;;;;;;5137223;27;19923;-59
2021/08/09 01:44:39;;;;;;;;;;;23.60;65.60;;;;;;5136007;27;19924;-59
2021/08/09 01:47:06;;;;;;;;;;;23.60;65.60;;;;;;5135848;27;20004;-59
2021/08/09 01:49:33;;;;;;;;;;;23.60;65.60;;;;;;5137020;27;19924;-60
2021/08/09 01:52:01;;;;;;;;;;;23.50;65.60;;;;;;5137052;27;19923;-59
2021/08/09 01:54:28;;;;;;;;;;;23.60;65.60;;;;;;5136404;27;19923;-59
2021/08/09 01:56:55;;;;;;;;;;;23.50;65.50;;;;;;5133672;27;19988;-59
2021/08/09 01:59:23;;;;;;;;;;;23.50;65.60;;;;;;5121848;27;20006;-59
2021/08/09 02:01:50;;;;;;;;;;;23.50;66.40;;;;;;5130306;27;19923;-60
2021/08/09 02:04:19;;;;;;;;;;;23.50;65.70;;;;;;5134973;27;19923;-60
2021/08/09 02:06:46;;;;;;;;;;;23.50;65.60;;;;;;5136213;27;20408;-59
2021/08/09 02:09:13;;;;;;;;;;;23.50;65.70;;;;;;5135200;27;19988;-61
2021/08/09 02:11:46;;;;;;;;;;;23.50;65.80;;;;;;5134897;27;19923;-60
2021/08/09 02:14:15;;;;;;;;;;;23.50;65.80;;;;;;5136141;27;19930;-59
2021/08/09 02:16:46;;;;;;;;;;;23.50;65.80;;;;;;5135940;27;19976;-59
2021/08/09 02:19:25;;;;;;;;;;;23.50;65.80;;;;;;5135043;27;19940;-60
2021/08/09 02:22:01;;;;;;;;;;;23.50;65.80;;;;;;5136141;27;19923;-59
2021/08/09 02:24:30;;;;;;;;;;;23.50;65.80;;;;;;5133520;27;19986;-59
2021/08/09 02:27:19;;;;;;;;;;;23.50;65.80;;;;;;5134418;27;19984;-59
2021/08/09 02:29:48;;;;;;;;;;;23.50;65.70;;;;;;5133174;27;19928;-60
2021/08/09 02:32:16;;;;;;;;;;;23.50;65.60;;;;;;5134004;27;19924;-60
2021/08/09 02:34:44;;;;;;;;;;;23.50;65.60;;;;;;5133031;27;19931;-59
2021/08/09 02:37:11;;;;;;;;;;;23.50;65.60;;;;;;5135607;27;19927;-59
2021/08/09 02:39:39;;;;;;;;;;;23.50;65.60;;;;;;5134199;27;20431;-59
2021/08/09 02:42:06;;;;;;;;;;;23.50;65.60;;;;;;5135471;27;19972;-59
2021/08/09 02:44:34;;;;;;;;;;;23.50;65.50;;;;;;5135720;27;19976;-60
2021/08/09 02:47:01;;;;;;;;;;;23.50;65.50;;;;;;5133013;27;19927;-59
2021/08/09 02:49:28;;;;;;;;;;;23.50;65.40;;;;;;5132989;27;19927;-59
2021/08/09 02:51:55;;;;;;;;;;;23.50;65.40;;;;;;5132201;27;19980;-60
2021/08/09 02:54:22;;;;;;;;;;;23.50;65.50;;;;;;5118224;27;19924;-60
2021/08/09 02:56:50;;;;;;;;;;;23.50;65.40;;;;;;5116769;27;19923;-59
2021/08/09 02:59:17;;;;;;;;;;;23.50;65.40;;;;;;5135596;27;20315;-59
2021/08/09 03:01:44;;;;;;;;;;;23.50;65.30;;;;;;5134946;27;19923;-59
2021/08/09 03:04:13;;;;;;;;;;;23.50;65.20;;;;;;5115917;27;19924;-59
2021/08/09 03:06:41;;;;;;;;;;;23.50;65.10;;;;;;5133771;27;19923;-59
2021/08/09 03:09:08;;;;;;;;;;;23.50;65.10;;;;;;5133922;27;19923;-59
2021/08/09 03:11:35;;;;;;;;;;;23.50;65.10;;;;;;5118873;27;19928;-59
2021/08/09 03:14:02;;;;;;;;;;;23.50;65.20;;;;;;5131896;27;19976;-59
2021/08/09 03:16:29;;;;;;;;;;;23.50;65.20;;;;;;5132476;27;19927;-59
2021/08/09 03:18:56;;;;;;;;;;;23.50;65.20;;;;;;5133874;27;20286;-60
2021/08/09 03:21:23;;;;;;;;;;;23.50;65.00;;;;;;5133309;27;19924;-60
2021/08/09 03:23:50;;;;;;;;;;;23.50;65.00;;;;;;5134521;27;19924;-59
2021/08/09 03:26:17;;;;;;;;;;;23.50;65.10;;;;;;5115575;27;20321;-59
2021/08/09 03:28:44;;;;;;;;;;;23.50;65.00;;;;;;5133335;27;19927;-59
2021/08/09 03:31:11;;;;;;;;;;;23.50;65.10;;;;;;5131865;27;19971;-59
2021/08/09 03:33:38;;;;;;;;;;;23.50;64.90;;;;;;5134698;27;19967;-59
2021/08/09 03:36:06;;;;;;;;;;;23.50;64.80;;;;;;5134401;27;19971;-59
2021/08/09 03:38:33;;;;;;;;;;;23.50;64.80;;;;;;5134614;27;19923;-60
2021/08/09 03:41:00;;;;;;;;;;;23.50;65.00;;;;;;5134692;27;20023;-60
2021/08/09 03:43:27;;;;;;;;;;;23.50;64.80;;;;;;5133038;27;19928;-60
2021/08/09 03:45:54;;;;;;;;;;;23.50;64.70;;;;;;5134130;27;19924;-59
2021/08/09 03:48:21;;;;;;;;;;;23.50;64.80;;;;;;5133013;27;19924;-60
2021/08/09 03:50:48;;;;;;;;;;;23.50;64.70;;;;;;5133298;27;19923;-59
2021/08/09 03:53:15;;;;;;;;;;;23.50;64.70;;;;;;5134405;27;19972;-59
2021/08/09 03:55:42;;;;;;;;;;;23.40;64.60;;;;;;5132901;27;20292;-60
2021/08/09 03:58:08;;;;;;;;;;;23.50;64.60;;;;;;5133931;27;20042;-60
2021/08/09 04:00:37;;;;;;;;;;;23.40;64.60;;;;;;5114604;27;19931;-60
2021/08/09 04:03:05;;;;;;;;;;;23.50;64.60;;;;;;5133021;27;20011;-59
2021/08/09 04:05:32;;;;;;;;;;;23.50;64.50;;;;;;5134208;27;20311;-60
2021/08/09 04:07:59;;;;;;;;;;;23.50;64.60;;;;;;5133709;27;19975;-59
2021/08/09 04:10:26;;;;;;;;;;;23.40;64.50;;;;;;5132962;27;19931;-59
2021/08/09 04:12:53;;;;;;;;;;;23.40;64.50;;;;;;5131348;27;19924;-60
2021/08/09 04:15:21;;;;;;;;;;;23.40;64.60;;;;;;5132938;27;19923;-60
2021/08/09 04:17:48;;;;;;;;;;;23.40;64.70;;;;;;5134128;27;19952;-60
2021/08/09 04:20:14;;;;;;;;;;;23.40;64.70;;;;;;5131149;27;19931;-59
2021/08/09 04:22:41;;;;;;;;;;;23.40;64.60;;;;;;5133571;27;19953;-60
2021/08/09 04:25:09;;;;;;;;;;;23.40;64.50;;;;;;5133542;27;19924;-59
2021/08/09 04:27:36;;;;;;;;;;;23.50;64.60;;;;;;5114052;28;19923;-59
2021/08/09 04:30:04;;;;;;;;;;;23.40;64.40;;;;;;5132279;27;19945;-59
2021/08/09 04:32:38;;;;;;;;;;;23.40;64.50;;;;;;5133496;27;19924;-60
2021/08/09 04:35:10;;;;;;;;;;;23.40;64.40;;;;;;5132168;28;19951;-59
2021/08/09 04:37:37;;;;;;;;;;;23.40;64.40;;;;;;5132485;28;20447;-59
2021/08/09 04:40:05;;;;;;;;;;;23.40;64.40;;;;;;5132137;28;20011;-59
2021/08/09 04:42:32;;;;;;;;;;;23.40;64.40;;;;;;5133630;28;19948;-59
2021/08/09 04:44:59;;;;;;;;;;;23.40;64.30;;;;;;5129290;28;20018;-60
2021/08/09 04:47:27;;;;;;;;;;;23.50;64.40;;;;;;5118887;28;19967;-58
2021/08/09 04:49:54;;;;;;;;;;;23.50;64.40;;;;;;5132216;28;19984;-59
2021/08/09 04:52:21;;;;;;;;;;;23.50;65.10;;;;;;5132493;28;19972;-59
2021/08/09 04:54:48;;;;;;;;;;;23.40;64.20;;;;;;5132029;28;19972;-59
2021/08/09 04:57:15;;;;;;;;;;;23.50;64.30;;;;;;5133121;28;19969;-59
2021/08/09 04:59:42;;;;;;;;;;;23.40;64.20;;;;;;5133046;28;19984;-59
2021/08/09 05:02:09;;;;;;;;;;;23.50;64.20;;;;;;5132501;28;20282;-59
2021/08/09 05:04:38;;;;;;;;;;;23.40;64.80;;;;;;5133109;28;20213;-59
2021/08/09 05:07:05;;;;;;;;;;;23.50;64.20;;;;;;5130699;28;19927;-59
2021/08/09 05:09:33;;;;;;;;;;;23.50;64.10;;;;;;5132015;28;19970;-59
2021/08/09 05:12:01;;;;;;;;;;;23.50;64.10;;;;;;5133619;27;19923;-60
2021/08/09 05:14:28;;;;;;;;;;;23.50;64.20;;;;;;5134861;27;19927;-59
2021/08/09 05:16:55;;;;;;;;;;;23.50;64.10;;;;;;5135682;27;19923;-59
2021/08/09 05:19:22;;;;;;;;;;;23.50;64.10;;;;;;5119245;27;19923;-59
2021/08/09 05:21:49;;;;;;;;;;;23.50;64.00;;;;;;5135885;27;19924;-59
2021/08/09 05:24:16;;;;;;;;;;;23.50;64.10;;;;;;5135661;27;19969;-59
2021/08/09 05:26:43;;;;;;;;;;;23.50;64.00;;;;;;5135643;27;19931;-59
2021/08/09 05:29:10;;;;;;;;;;;23.50;63.90;;;;;;5136737;27;19923;-59
2021/08/09 05:31:37;;;;;;;;;;;23.60;63.90;;;;;;5130518;27;20015;-60
2021/08/09 05:34:04;;;;;;;;;;;23.60;63.80;;;;;;5124287;27;19923;-59
2021/08/09 05:36:31;;;;;;;;;;;23.60;63.70;;;;;;5136632;27;20425;-59
2021/08/09 05:39:00;;;;;;;;;;;23.60;63.50;;;;;;5131614;27;19958;-59
2021/08/09 05:41:27;;;;;;;;;;;23.70;63.50;;;;;;5119033;27;20011;-59
2021/08/09 05:43:54;;;;;;;;;;;23.60;63.40;;;;;;5119630;27;19952;-60
2021/08/09 05:46:21;;;;;;;;;;;23.70;63.50;;;;;;5120017;27;19924;-60
2021/08/09 05:48:48;;;;;;;;;;;23.70;63.30;;;;;;5120089;27;20363;-59
2021/08/09 05:51:15;;;;;;;;;;;23.70;63.20;;;;;;5134905;27;19923;-60
2021/08/09 05:53:42;;;;;;;;;;;23.80;63.00;;;;;;5135553;27;20455;-59
2021/08/09 05:56:09;;;;;;;;;;;23.80;63.00;;;;;;5135800;27;20399;-59
2021/08/09 05:58:37;;;;;;;;;;;23.90;63.10;;;;;;5135107;27;20376;-60
2021/08/09 06:01:04;;;;;;;;;;;23.90;63.10;;;;;;5135196;27;19930;-59
2021/08/09 06:03:32;;;;;;;;;;;23.90;62.90;;;;;;5135147;27;20378;-59
2021/08/09 06:05:58;;;;;;;;;;;23.90;62.90;;;;;;5134608;27;19923;-59
2021/08/09 06:08:25;;;;;;;;;;;23.90;62.80;;;;;;5135171;27;19991;-59
2021/08/09 06:10:52;;;;;;;;;;;23.90;62.70;;;;;;5136068;27;20039;-59
2021/08/09 06:13:19;;;;;;;;;;;24.00;62.60;;;;;;5135918;27;19923;-59
2021/08/09 06:15:47;;;;;;;;;;;24.00;62.60;;;;;;5134911;27;19977;-59
2021/08/09 06:18:14;;;;;;;;;;;24.00;62.50;;;;;;5118012;27;19924;-59
2021/08/09 06:20:41;;;;;;;;;;;24.10;62.60;;;;;;5134308;27;20391;-59
2021/08/09 06:23:08;;;;;;;;;;;24.10;62.50;;;;;;5133148;27;20351;-59
2021/08/09 06:25:35;;;;;;;;;;;24.10;62.30;;;;;;5135863;27;19984;-60
2021/08/09 06:28:02;;;;;;;;;;;24.10;62.30;;;;;;5135723;27;19962;-59
2021/08/09 06:30:29;;;;;;;;;;;24.20;62.20;;;;;;5135538;27;19924;-59
2021/08/09 06:32:56;;;;;;;;;;;24.20;62.10;;;;;;5134275;27;19923;-59
2021/08/09 06:35:23;;;;;;;;;;;24.20;62.10;;;;;;5132920;27;19923;-59
2021/08/09 06:37:50;;;;;;;;;;;24.30;62.10;;;;;;5135529;27;20022;-59
2021/08/09 06:40:18;;;;;;;;;;;24.30;62.00;;;;;;5134709;27;20247;-60
2021/08/09 06:42:45;;;;;;;;;;;24.30;62.00;;;;;;5134179;27;19924;-59
2021/08/09 06:45:12;;;;;;;;;;;24.30;61.90;;;;;;5134242;27;19923;-59
2021/08/09 06:47:39;;;;;;;;;;;24.40;61.90;;;;;;5135376;27;19962;-59
2021/08/09 06:50:06;;;;;;;;;;;24.40;61.80;;;;;;5133282;27;19970;-59
2021/08/09 06:52:33;;;;;;;;;;;24.40;61.90;;;;;;5133653;27;19976;-59
2021/08/09 06:55:00;;;;;;;;;;;24.40;61.80;;;;;;5134311;27;19923;-59
2021/08/09 06:57:27;;;;;;;;;;;24.50;61.80;;;;;;5134884;27;19976;-59
2021/08/09 06:59:54;;;;;;;;;;;24.50;61.60;;;;;;5133984;27;19984;-59
2021/08/09 07:02:21;;;;;;;;;;;24.50;61.80;;;;;;5132476;27;20339;-59
2021/08/09 07:04:49;;;;;;;;;;;24.50;61.70;;;;;;5133480;27;19923;-59
2021/08/09 07:07:15;;;;;;;;;;;24.50;61.60;;;;;;5134919;27;19969;-59
2021/08/09 07:09:42;;;;;;;;;;;24.50;61.60;;;;;;5133689;27;19972;-58
2021/08/09 07:12:09;;;;;;;;;;;24.60;61.60;;;;;;5133568;27;19959;-59
2021/08/09 07:14:37;;;;;;;;;;;24.60;61.60;;;;;;5125809;27;19988;-59
2021/08/09 07:17:04;;;;;;;;;;;24.60;61.50;;;;;;5123841;27;19969;-59
2021/08/09 07:19:31;;;;;;;;;;;24.60;61.50;;;;;;5126998;27;19947;-59
2021/08/09 07:21:58;;;;;;;;;;;24.60;61.40;;;;;;5124407;27;19972;-59
2021/08/09 07:24:25;;;;;;;;;;;24.60;61.50;;;;;;5128785;27;19924;-59
2021/08/09 07:26:52;;;;;;;;;;;24.60;61.30;;;;;;5117723;27;19972;-59
2021/08/09 07:29:19;;;;;;;;;;;24.70;61.30;;;;;;5119979;27;20439;-60
2021/08/09 07:31:46;;;;;;;;;;;24.70;61.30;;;;;;5131865;27;19924;-59
2021/08/09 07:34:13;;;;;;;;;;;24.60;61.30;;;;;;5099191;27;19934;-59
2021/08/09 07:36:40;;;;;;;;;;;24.70;61.40;;;;;;5132855;27;19972;-59
2021/08/09 07:39:07;;;;;;;;;;;24.60;61.60;;;;;;5134769;27;20361;-59
2021/08/09 07:41:34;;;;;;;;;;;24.60;61.80;;;;;;5134456;27;19923;-59
2021/08/09 07:44:01;;;;;;;;;;;24.60;61.80;;;;;;5114009;27;19923;-59
2021/08/09 07:46:28;;;;;;;;;;;24.60;61.90;;;;;;5133149;27;19927;-59
2021/08/09 07:48:55;;;;;;;;;;;24.60;61.80;;;;;;5132122;27;19923;-59
2021/08/09 07:51:22;;;;;;;;;;;24.70;61.70;;;;;;5133240;27;19923;-59
2021/08/09 07:53:49;;;;;;;;;;;24.70;61.70;;;;;;5132968;27;19963;-59
2021/08/09 07:56:16;;;;;;;;;;;24.80;61.60;;;;;;5132490;27;20224;-59
2021/08/09 07:58:43;;;;;;;;;;;24.80;61.30;;;;;;5131598;27;19951;-60
2021/08/09 08:01:10;;;;;;;;;;;24.80;61.70;;;;;;5133915;27;19945;-59
2021/08/09 08:03:37;;;;;;;;;;;24.80;61.50;;;;;;5134400;27;19965;-59
2021/08/09 08:06:04;;;;;;;;;;;24.80;61.40;;;;;;5131303;27;19962;-59
2021/08/09 08:08:31;;;;;;;;;;;24.90;61.40;;;;;;5134328;27;19923;-59
2021/08/09 08:10:58;;;;;;;;;;;24.90;61.30;;;;;;5132328;27;19966;-59
2021/08/09 08:13:25;;;;;;;;;;;24.90;61.20;;;;;;5134074;27;20321;-59
2021/08/09 08:15:52;;;;;;;;;;;24.90;61.10;;;;;;5134030;27;19963;-59
2021/08/09 08:18:19;;;;;;;;;;;25.00;61.10;;;;;;5126839;27;19959;-59
2021/08/09 08:20:48;;;;;;;;;;;25.10;60.90;;;;;;5116954;27;19924;-59
2021/08/09 08:23:20;;;;;;;;;;;25.10;60.80;;;;;;5116930;27;19976;-59
2021/08/09 08:25:47;;;;;;;;;;;25.10;60.70;;;;;;5116999;27;19973;-59
2021/08/09 08:28:14;;;;;;;;;;;25.10;60.50;;;;;;5116522;27;20375;-59
2021/08/09 08:30:41;;;;;;;;;;;25.10;60.40;;;;;;5118389;27;19939;-59
2021/08/09 08:33:08;;;;;;;;;;;25.20;60.40;;;;;;5133400;27;20366;-59
2021/08/09 08:35:35;;;;;;;;;;;25.10;60.30;;;;;;5131298;28;20334;-59
2021/08/09 08:38:02;;;;;;;;;;;25.10;61.20;;;;;;5133443;28;19923;-59
2021/08/09 08:40:29;;;;;;;;;;;25.10;60.50;;;;;;5133889;28;19927;-60
2021/08/09 08:42:56;;;;;;;;;;;25.10;60.60;;;;;;5132542;28;19927;-59
2021/08/09 08:45:23;;;;;;;;;;;25.10;60.50;;;;;;5132930;27;19927;-59
2021/08/09 08:47:50;;;;;;;;;;;25.00;60.60;;;;;;5134618;27;19978;-59
2021/08/09 08:50:19;;;;;;;;;;;25.00;60.90;;;;;;5135268;27;20035;-59
2021/08/09 08:52:49;;;;;;;;;;;25.00;60.70;;;;;;5137603;27;19959;-59
2021/08/09 08:55:17;;;;;;;;;;;24.90;60.70;;;;;;5136179;27;19983;-59
2021/08/09 08:57:45;;;;;;;;;;;24.90;61.10;;;;;;5137668;27;19928;-59
2021/08/09 09:00:14;;;;;;;;;;;24.90;60.80;;;;;;5136257;27;20252;-59
2021/08/09 09:02:41;;;;;;;;;;;24.90;60.80;;;;;;5137635;27;19962;-59
2021/08/09 09:05:18;;;;;;;;;;;24.90;60.80;;;;;;5136025;27;20444;-59
2021/08/09 09:07:49;;;;;;;;;;;24.90;61.00;;;;;;5136190;27;19923;-60
2021/08/09 09:10:25;;;;;;;;;;;24.90;61.00;;;;;;5119557;27;19924;-59
2021/08/09 09:13:05;;;;;;;;;;;24.90;60.60;;;;;;5137343;27;19954;-59
2021/08/09 09:15:51;;;;;;;;;;;24.90;60.60;;;;;;5124006;27;19968;-59
2021/08/09 09:18:18;;;;;;;;;;;24.90;60.70;;;;;;5132925;27;19923;-59
2021/08/09 09:20:45;;;;;;;;;;;24.90;60.40;;;;;;5105126;28;19924;-60
2021/08/09 09:23:20;;;;;;;;;;;24.90;60.60;;;;;;5129187;27;19939;-59
2021/08/09 09:25:49;;;;;;;;;;;24.90;60.70;;;;;;5135740;27;19971;-60
2021/08/09 09:28:29;;;;;;;;;;;24.90;60.80;;;;;;5137030;27;20056;-60
2021/08/09 09:31:02;;;;;;;;;;;24.90;60.50;;;;;;5135748;27;19927;-59
2021/08/09 09:33:30;;;;;;;;;;;24.90;60.40;;;;;;5135551;27;19969;-59
2021/08/09 09:36:03;;;;;;;;;;;24.90;60.60;;;;;;5135588;27;19923;-60
2021/08/09 09:38:43;;;;;;;;;;;25.00;60.60;;;;;;5135096;27;19924;-59
2021/08/09 09:41:10;;;;;;;;;;;25.00;60.70;;;;;;5135415;27;19923;-59
2021/08/09 09:43:39;;;;;;;;;;;25.00;60.50;;;;;;5135223;27;19931;-59
2021/08/09 09:46:06;;;;;;;;;;;25.00;60.50;;;;;;5126870;27;19924;-59
2021/08/09 09:48:38;;;;;;;;;;;25.00;60.60;;;;;;5126178;27;19923;-60
2021/08/09 09:51:09;;;;;;;;;;;25.00;60.50;;;;;;5135157;27;19924;-59
2021/08/09 09:53:36;;;;;;;;;;;25.00;60.50;;;;;;5136584;27;19976;-59
2021/08/09 09:56:03;;;;;;;;;;;25.10;60.40;;;;;;5136081;27;20348;-59
2021/08/09 09:58:30;;;;;;;;;;;25.10;60.50;;;;;;5134563;27;19950;-59
2021/08/09 10:01:00;;;;;;;;;;;25.10;60.50;;;;;;5136208;27;19966;-59
2021/08/09 10:03:29;;;;;;;;;;;25.10;59.80;;;;;;5130054;27;19993;-59
2021/08/09 10:05:57;;;;;;;;;;;25.10;59.70;;;;;;5123251;27;19924;-59
2021/08/09 10:08:25;;;;;;;;;;;25.10;59.40;;;;;;5134796;27;20410;-59
2021/08/09 10:10:53;;;;;;;;;;;25.10;59.40;;;;;;5134466;27;19972;-60
2021/08/09 10:13:21;;;;;;;;;;;25.20;59.40;;;;;;5135847;27;19962;-59
2021/08/09 10:15:56;;;;;;;;;;;25.10;58.80;;;;;;5135324;27;19931;-59
2021/08/09 10:18:25;;;;;;;;;;;25.10;59.00;;;;;;5118091;27;20413;-59
2021/08/09 10:20:53;;;;;;;;;;;25.10;58.50;;;;;;5136059;27;19923;-59
2021/08/09 10:23:39;;;;;;;;;;;25.10;58.60;;;;;;5134675;27;19932;-59
2021/08/09 10:26:10;;;;;;;;;;;25.10;58.80;;;;;;5118779;27;19930;-60
2021/08/09 10:28:53;;;;;;;;;;;25.20;58.90;;;;;;5118022;27;19959;-59
2021/08/09 10:31:20;;;;;;;;;;;25.20;58.70;;;;;;5134796;27;19969;-60
2021/08/09 10:33:49;;;;;;;;;;;25.10;58.60;;;;;;5132957;27;19923;-59
2021/08/09 10:36:23;;;;;;;;;;;25.10;58.80;;;;;;5135473;27;19928;-59
2021/08/09 10:38:51;;;;;;;;;;;25.20;58.90;;;;;;5116203;27;19927;-59
2021/08/09 10:41:25;;;;;;;;;;;25.20;58.70;;;;;;5117907;27;19923;-59
2021/08/09 10:44:04;;;;;;;;;;;25.20;58.90;;;;;;5117671;27;19924;-59
2021/08/09 10:46:41;;;;;;;;;;;25.20;58.80;;;;;;5116273;27;19927;-59
2021/08/09 10:49:30;;;;;;;;;;;25.20;58.70;;;;;;5117311;27;19930;-59
2021/08/09 10:51:57;;;;;;;;;;;25.20;58.90;;;;;;5135219;27;19923;-60
2021/08/09 10:54:28;;;;;;;;;;;25.20;58.90;;;;;;5134011;27;19923;-59
2021/08/09 10:56:56;;;;;;;;;;;25.20;59.10;;;;;;5117557;27;19979;-60
2021/08/09 10:59:35;;;;;;;;;;;25.20;58.80;;;;;;5134878;27;20371;-60
2021/08/09 11:02:03;;;;;;;;;;;25.20;58.90;;;;;;5133941;27;19972;-59
2021/08/09 11:04:30;;;;;;;;;;;25.20;58.80;;;;;;5133827;27;20278;-60
2021/08/09 11:06:57;;;;;;;;;;;25.20;58.80;;;;;;5115652;27;19949;-58
2021/08/09 11:09:31;;;;;;;;;;;25.20;58.60;;;;;;5132534;27;19946;-59
2021/08/09 11:12:16;;;;;;;;;;;25.20;58.70;;;;;;5132632;27;19940;-59
2021/08/09 11:15:03;;;;;;;;;;;25.20;58.90;;;;;;5117809;27;19927;-59
2021/08/09 11:17:31;;;;;;;;;;;25.20;59.00;;;;;;5119559;27;20286;-59
2021/08/09 11:20:14;;;;;;;;;;;25.20;59.10;;;;;;5133618;27;19981;-59
2021/08/09 11:22:41;;;;;;;;;;;25.20;59.10;;;;;;5133417;27;19942;-59
2021/08/09 11:25:29;;;;;;;;;;;25.30;59.30;;;;;;5134597;27;20017;-59
2021/08/09 11:28:07;;;;;;;;;;;25.30;59.40;;;;;;5114891;27;19972;-59
2021/08/09 11:30:35;;;;;;;;;;;25.30;59.30;;;;;;5133587;27;20348;-59
2021/08/09 11:33:02;;;;;;;;;;;25.30;59.40;;;;;;5133553;27;19959;-59
2021/08/09 11:35:30;;;;;;;;;;;25.30;59.40;;;;;;5132204;27;20321;-59
2021/08/09 11:37:58;;;;;;;;;;;25.30;59.40;;;;;;5134499;27;19932;-59
2021/08/09 11:40:35;;;;;;;;;;;25.30;59.40;;;;;;5134639;27;19923;-59
2021/08/09 11:43:03;;;;;;;;;;;25.30;59.40;;;;;;5118051;27;19923;-59
2021/08/09 11:45:30;;;;;;;;;;;25.30;59.40;;;;;;5132744;27;19924;-59
2021/08/09 11:47:57;;;;;;;;;;;25.30;59.30;;;;;;5132916;27;19923;-59
2021/08/09 11:50:24;;;;;;;;;;;25.30;59.30;;;;;;5132071;27;19927;-59
2021/08/09 11:52:51;;;;;;;;;;;25.30;59.40;;;;;;5133892;27;19968;-61
2021/08/09 11:55:22;;;;;;;;;;;25.30;59.40;;;;;;5134432;27;19936;-59
2021/08/09 11:57:49;;;;;;;;;;;25.30;59.50;;;;;;5132416;27;19930;-59
2021/08/09 12:00:16;;;;;;;;;;;25.40;59.50;;;;;;5116517;27;19924;-60
2021/08/09 12:03:01;;;;;;;;;;;25.40;59.50;;;;;;5130861;27;19923;-60
2021/08/09 12:05:28;;;;;;;;;;;25.40;59.50;;;;;;5133986;27;19976;-59
2021/08/09 12:08:03;;;;;;;;;;;25.40;59.50;;;;;;5132575;27;19967;-61
2021/08/09 12:10:30;;;;;;;;;;;25.40;59.60;;;;;;5131499;27;19923;-59
2021/08/09 12:12:57;;;;;;;;;;;25.40;59.70;;;;;;5117735;27;19973;-61
2021/08/09 12:15:24;;;;;;;;;;;25.40;59.70;;;;;;5129010;27;19976;-59
2021/08/09 12:18:01;;;;;;;;;;;25.40;59.60;;;;;;5133914;27;19930;-60
2021/08/09 12:20:28;;;;;;;;;;;25.40;59.60;;;;;;5113295;27;20007;-59
2021/08/09 12:22:55;;;;;;;;;;;25.40;59.70;;;;;;5133803;27;19931;-60
2021/08/09 12:25:33;;;;;;;;;;;25.40;59.60;;;;;;5132626;27;20298;-60
2021/08/09 12:28:00;;;;;;;;;;;25.40;59.70;;;;;;5133934;27;20324;-59
2021/08/09 12:30:27;;;;;;;;;;;25.40;59.70;;;;;;5133509;27;19931;-59
2021/08/09 12:32:59;;;;;;;;;;;25.40;59.80;;;;;;5132137;27;19934;-59
2021/08/09 12:35:34;;;;;;;;;;;25.40;59.80;;;;;;5115756;27;19931;-60
2021/08/09 12:38:01;;;;;;;;;;;25.40;59.80;;;;;;5132455;28;19962;-60
2021/08/09 12:40:47;;;;;;;;;;;25.40;59.90;;;;;;5133489;28;19970;-60
2021/08/09 12:43:15;;;;;;;;;;;25.40;59.70;;;;;;5131984;28;20374;-60
2021/08/09 12:45:43;;;;;;;;;;;25.40;59.70;;;;;;5122555;28;19923;-60
2021/08/09 12:48:11;;;;;;;;;;;25.40;59.70;;;;;;5124907;28;20383;-60
2021/08/09 12:50:39;;;;;;;;;;;25.50;59.70;;;;;;5131834;28;19966;-59
2021/08/09 12:53:06;;;;;;;;;;;25.40;59.60;;;;;;5126686;28;19983;-60
2021/08/09 12:55:33;;;;;;;;;;;25.50;59.70;;;;;;5114952;28;19924;-61
2021/08/09 12:58:01;;;;;;;;;;;25.50;59.60;;;;;;5121541;28;19923;-59
2021/08/09 13:00:31;;;;;;;;;;;25.50;59.60;;;;;;5132346;28;20002;-59
2021/08/09 13:02:58;;;;;;;;;;;25.50;59.60;;;;;;5133310;28;19923;-59
2021/08/09 13:05:25;;;;;;;;;;;25.50;59.60;;;;;;5133099;28;20440;-59
2021/08/09 13:07:52;;;;;;;;;;;25.50;59.60;;;;;;5132078;28;19967;-59
2021/08/09 13:10:20;;;;;;;;;;;25.50;59.70;;;;;;5132118;28;20000;-59
2021/08/09 13:12:47;;;;;;;;;;;25.50;59.60;;;;;;5133587;28;19924;-59
2021/08/09 13:15:14;;;;;;;;;;;25.50;59.60;;;;;;5133546;28;20333;-59
2021/08/09 13:17:41;;;;;;;;;;;25.50;59.50;;;;;;5132040;28;19930;-60
2021/08/09 13:20:09;;;;;;;;;;;25.50;59.50;;;;;;5133500;28;19971;-60
2021/08/09 13:22:36;;;;;;;;;;;25.50;59.50;;;;;;5132427;28;19923;-59
2021/08/09 13:25:03;;;;;;;;;;;25.60;59.70;;;;;;5133465;28;20290;-60
2021/08/09 13:27:30;;;;;;;;;;;25.50;59.50;;;;;;5112410;28;19923;-60
2021/08/09 13:29:59;;;;;;;;;;;25.50;59.50;;;;;;5132848;28;19923;-60
2021/08/09 13:32:26;;;;;;;;;;;25.50;59.40;;;;;;5134091;27;20256;-59
2021/08/09 13:34:52;;;;;;;;;;;25.50;59.40;;;;;;5135321;27;20015;-60
2021/08/09 13:37:19;;;;;;;;;;;25.50;60.10;;;;;;5135715;27;19968;-60
2021/08/09 13:39:48;;;;;;;;;;;25.50;59.50;;;;;;5125940;27;19967;-60
2021/08/09 13:42:15;;;;;;;;;;;25.50;59.50;;;;;;5119766;27;19924;-59
2021/08/09 13:44:42;;;;;;;;;;;25.60;59.60;;;;;;5128736;27;20435;-60
2021/08/09 13:47:12;;;;;;;;;;;25.60;59.60;;;;;;5136856;27;20295;-60
2021/08/09 13:49:39;;;;;;;;;;;25.60;59.50;;;;;;5136373;27;19956;-60
2021/08/09 13:52:10;;;;;;;;;;;25.60;59.50;;;;;;5136586;27;19927;-60
2021/08/09 13:54:37;;;;;;;;;;;25.60;59.50;;;;;;5136378;27;19968;-60
2021/08/09 13:57:04;;;;;;;;;;;25.60;59.70;;;;;;5133608;27;19924;-60
2021/08/09 13:59:31;;;;;;;;;;;25.60;59.70;;;;;;5135073;27;19923;-61
2021/08/09 14:02:00;;;;;;;;;;;25.60;59.70;;;;;;5133718;27;19973;-59
2021/08/09 14:04:27;;;;;;;;;;;25.60;59.70;;;;;;5136333;27;20279;-60
2021/08/09 14:06:54;;;;;;;;;;;25.60;59.70;;;;;;5134709;27;19976;-60
2021/08/09 14:09:21;;;;;;;;;;;25.60;59.70;;;;;;5136200;27;19927;-59
2021/08/09 14:11:48;;;;;;;;;;;25.60;59.80;;;;;;5135004;27;20014;-60
2021/08/09 14:14:15;;;;;;;;;;;25.60;59.70;;;;;;5134203;27;20006;-60
2021/08/09 14:16:42;;;;;;;;;;;25.60;59.70;;;;;;5134746;27;19931;-60
2021/08/09 14:19:09;;;;;;;;;;;25.60;59.70;;;;;;5136311;27;20290;-60
2021/08/09 14:21:36;;;;;;;;;;;25.60;59.90;;;;;;5136045;27;19924;-60
2021/08/09 14:24:03;;;;;;;;;;;25.60;59.90;;;;;;5134563;27;19963;-60